sensor_id;sensor_type;location;lat;lon;timestamp;temperature;humidity
48376;DHT22;34178;50.904;11.560;2023-11-18T00:00:45;4.70;99.90
48376;DHT22;34178;50.904;11.560;2023-11-18T00:03:10;4.60;99.90
48376;DHT22;34178;50.904;11.560;2023-11-18T00:05:36;4.50;99.90
48376;DHT22;34178;50.904;11.560;2023-11-18T00:08:02;4.50;99.90
48376;DHT22;34178;50.904;11.560;2023-11-18T00:10:28;4.30;99.90
48376;DHT22;34178;50.904;11.560;2023-11-18T00:12:54;4.20;99.90
48376;DHT22;34178;50.904;11.560;2023-11-18T00:15:20;4.10;99.90
48376;DHT22;34178;50.904;11.560;2023-11-18T00:17:46;4.00;99.90
48376;DHT22;34178;50.904;11.560;2023-11-18T00:20:12;3.90;99.90
48376;DHT22;34178;50.904;11.560;2023-11-18T00:22:39;3.70;99.90
48376;DHT22;34178;50.904;11.560;2023-11-18T00:25:07;3.60;99.90
48376;DHT22;34178;50.904;11.560;2023-11-18T00:27:35;3.50;99.90
48376;DHT22;34178;50.904;11.560;2023-11-18T00:30:04;3.40;99.90
48376;DHT22;34178;50.904;11.560;2023-11-18T00:32:31;3.30;99.90
48376;DHT22;34178;50.904;11.560;2023-11-18T00:34:57;3.20;99.90
48376;DHT22;34178;50.904;11.560;2023-11-18T00:37:23;3.10;99.90
48376;DHT22;34178;50.904;11.560;2023-11-18T00:39:49;3.10;99.90
48376;DHT22;34178;50.904;11.560;2023-11-18T00:42:14;2.90;99.90
48376;DHT22;34178;50.904;11.560;2023-11-18T00:44:41;2.80;99.90
48376;DHT22;34178;50.904;11.560;2023-11-18T00:47:07;2.80;99.90
48376;DHT22;34178;50.904;11.560;2023-11-18T00:49:33;2.70;99.90
48376;DHT22;34178;50.904;11.560;2023-11-18T00:51:59;2.70;99.90
48376;DHT22;34178;50.904;11.560;2023-11-18T00:54:25;2.60;99.90
48376;DHT22;34178;50.904;11.560;2023-11-18T00:56:51;2.60;99.90
48376;DHT22;34178;50.904;11.560;2023-11-18T00:59:16;2.50;99.90
48376;DHT22;34178;50.904;11.560;2023-11-18T01:01:42;2.50;99.90
48376;DHT22;34178;50.904;11.560;2023-11-18T01:04:07;2.40;99.90
48376;DHT22;34178;50.904;11.560;2023-11-18T01:06:34;2.40;99.90
48376;DHT22;34178;50.904;11.560;2023-11-18T01:09:00;2.30;99.90
48376;DHT22;34178;50.904;11.560;2023-11-18T01:11:26;2.20;99.90
48376;DHT22;34178;50.904;11.560;2023-11-18T01:13:52;2.20;99.90
48376;DHT22;34178;50.904;11.560;2023-11-18T01:16:20;2.20;99.90
48376;DHT22;34178;50.904;11.560;2023-11-18T01:18:45;2.10;99.90
48376;DHT22;34178;50.904;11.560;2023-11-18T01:21:11;2.00;99.90
48376;DHT22;34178;50.904;11.560;2023-11-18T01:23:38;2.00;99.90
48376;DHT22;34178;50.904;11.560;2023-11-18T01:26:05;2.00;99.90
48376;DHT22;34178;50.904;11.560;2023-11-18T01:28:32;2.00;99.90
48376;DHT22;34178;50.904;11.560;2023-11-18T01:31:03;2.00;99.90
48376;DHT22;34178;50.904;11.560;2023-11-18T01:33:29;1.90;99.90
48376;DHT22;34178;50.904;11.560;2023-11-18T01:35:55;1.90;99.90
48376;DHT22;34178;50.904;11.560;2023-11-18T01:38:21;1.80;99.90
48376;DHT22;34178;50.904;11.560;2023-11-18T01:40:47;1.80;99.90
48376;DHT22;34178;50.904;11.560;2023-11-18T01:43:12;1.80;99.90
48376;DHT22;34178;50.904;11.560;2023-11-18T01:45:40;1.80;99.90
48376;DHT22;34178;50.904;11.560;2023-11-18T01:48:07;1.70;99.90
48376;DHT22;34178;50.904;11.560;2023-11-18T01:50:37;1.60;99.90
48376;DHT22;34178;50.904;11.560;2023-11-18T01:53:04;1.50;99.90
48376;DHT22;34178;50.904;11.560;2023-11-18T01:55:31;1.50;99.90
48376;DHT22;34178;50.904;11.560;2023-11-18T01:57:57;1.40;99.90
48376;DHT22;34178;50.904;11.560;2023-11-18T02:00:24;1.30;99.90
48376;DHT22;34178;50.904;11.560;2023-11-18T02:02:50;1.30;99.90
48376;DHT22;34178;50.904;11.560;2023-11-18T02:05:16;1.30;99.90
48376;DHT22;34178;50.904;11.560;2023-11-18T02:07:43;1.20;99.90
48376;DHT22;34178;50.904;11.560;2023-11-18T02:10:09;1.20;99.90
48376;DHT22;34178;50.904;11.560;2023-11-18T02:12:46;1.20;99.90
48376;DHT22;34178;50.904;11.560;2023-11-18T02:15:14;1.30;99.90
48376;DHT22;34178;50.904;11.560;2023-11-18T02:17:41;1.30;99.90
48376;DHT22;34178;50.904;11.560;2023-11-18T02:20:10;1.30;99.90
48376;DHT22;34178;50.904;11.560;2023-11-18T02:22:44;1.30;99.90
48376;DHT22;34178;50.904;11.560;2023-11-18T02:25:17;1.20;99.90
48376;DHT22;34178;50.904;11.560;2023-11-18T02:27:44;1.20;99.90
48376;DHT22;34178;50.904;11.560;2023-11-18T02:30:12;1.20;99.90
48376;DHT22;34178;50.904;11.560;2023-11-18T02:32:49;1.10;99.90
48376;DHT22;34178;50.904;11.560;2023-11-18T02:35:32;1.10;99.90
48376;DHT22;34178;50.904;11.560;2023-11-18T02:38:01;1.00;99.90
48376;DHT22;34178;50.904;11.560;2023-11-18T02:40:35;1.00;99.90
48376;DHT22;34178;50.904;11.560;2023-11-18T02:43:02;0.90;99.90
48376;DHT22;34178;50.904;11.560;2023-11-18T02:45:31;1.00;99.90
48376;DHT22;34178;50.904;11.560;2023-11-18T02:47:57;0.80;99.90
48376;DHT22;34178;50.904;11.560;2023-11-18T02:50:26;0.80;99.90
48376;DHT22;34178;50.904;11.560;2023-11-18T02:52:55;0.80;99.90
48376;DHT22;34178;50.904;11.560;2023-11-18T02:55:21;0.70;99.90
48376;DHT22;34178;50.904;11.560;2023-11-18T02:57:48;0.70;99.90
48376;DHT22;34178;50.904;11.560;2023-11-18T03:00:15;0.70;99.90
48376;DHT22;34178;50.904;11.560;2023-11-18T03:02:47;0.70;99.90
48376;DHT22;34178;50.904;11.560;2023-11-18T03:05:14;0.80;99.90
48376;DHT22;34178;50.904;11.560;2023-11-18T03:07:44;0.80;99.90
48376;DHT22;34178;50.904;11.560;2023-11-18T03:10:12;0.80;99.90
48376;DHT22;34178;50.904;11.560;2023-11-18T03:12:53;0.80;99.90
48376;DHT22;34178;50.904;11.560;2023-11-18T03:15:20;0.80;99.90
48376;DHT22;34178;50.904;11.560;2023-11-18T03:17:47;0.70;99.90
48376;DHT22;34178;50.904;11.560;2023-11-18T03:20:15;0.70;99.90
48376;DHT22;34178;50.904;11.560;2023-11-18T03:22:45;0.70;99.90
48376;DHT22;34178;50.904;11.560;2023-11-18T03:25:15;0.60;99.90
48376;DHT22;34178;50.904;11.560;2023-11-18T03:27:41;0.60;99.90
48376;DHT22;34178;50.904;11.560;2023-11-18T03:30:07;0.60;99.90
48376;DHT22;34178;50.904;11.560;2023-11-18T03:32:37;0.60;99.90
48376;DHT22;34178;50.904;11.560;2023-11-18T03:35:06;0.50;99.90
48376;DHT22;34178;50.904;11.560;2023-11-18T03:37:37;0.50;99.90
48376;DHT22;34178;50.904;11.560;2023-11-18T03:40:10;0.50;99.90
48376;DHT22;34178;50.904;11.560;2023-11-18T03:42:37;0.50;99.90
48376;DHT22;34178;50.904;11.560;2023-11-18T03:45:03;0.50;99.90
48376;DHT22;34178;50.904;11.560;2023-11-18T03:47:29;0.50;99.90
48376;DHT22;34178;50.904;11.560;2023-11-18T03:49:56;0.50;99.90
48376;DHT22;34178;50.904;11.560;2023-11-18T03:52:22;0.60;99.90
48376;DHT22;34178;50.904;11.560;2023-11-18T03:54:48;0.70;99.90
48376;DHT22;34178;50.904;11.560;2023-11-18T03:57:14;0.80;99.90
48376;DHT22;34178;50.904;11.560;2023-11-18T03:59:39;0.90;99.90
48376;DHT22;34178;50.904;11.560;2023-11-18T04:02:06;1.00;99.90
48376;DHT22;34178;50.904;11.560;2023-11-18T04:04:32;1.00;99.90
48376;DHT22;34178;50.904;11.560;2023-11-18T04:06:58;1.10;99.90
48376;DHT22;34178;50.904;11.560;2023-11-18T04:09:26;1.10;99.90
48376;DHT22;34178;50.904;11.560;2023-11-18T04:11:52;1.20;99.90
48376;DHT22;34178;50.904;11.560;2023-11-18T04:14:18;1.20;99.90
48376;DHT22;34178;50.904;11.560;2023-11-18T04:16:50;1.30;99.90
48376;DHT22;34178;50.904;11.560;2023-11-18T04:19:16;1.30;99.90
48376;DHT22;34178;50.904;11.560;2023-11-18T04:21:41;1.40;99.90
48376;DHT22;34178;50.904;11.560;2023-11-18T04:24:07;1.40;99.90
48376;DHT22;34178;50.904;11.560;2023-11-18T04:26:33;1.50;99.90
48376;DHT22;34178;50.904;11.560;2023-11-18T04:28:58;1.60;99.90
48376;DHT22;34178;50.904;11.560;2023-11-18T04:31:24;1.60;99.90
48376;DHT22;34178;50.904;11.560;2023-11-18T04:33:50;1.70;99.90
48376;DHT22;34178;50.904;11.560;2023-11-18T04:36:16;1.70;99.90
48376;DHT22;34178;50.904;11.560;2023-11-18T04:38:42;1.80;99.90
48376;DHT22;34178;50.904;11.560;2023-11-18T04:41:09;1.80;99.90
48376;DHT22;34178;50.904;11.560;2023-11-18T04:43:35;1.80;99.90
48376;DHT22;34178;50.904;11.560;2023-11-18T04:46:00;1.90;99.90
48376;DHT22;34178;50.904;11.560;2023-11-18T04:48:26;2.00;99.90
48376;DHT22;34178;50.904;11.560;2023-11-18T04:50:52;2.10;99.90
48376;DHT22;34178;50.904;11.560;2023-11-18T04:53:18;2.20;99.90
48376;DHT22;34178;50.904;11.560;2023-11-18T04:55:43;2.20;99.90
48376;DHT22;34178;50.904;11.560;2023-11-18T04:58:10;2.10;99.90
48376;DHT22;34178;50.904;11.560;2023-11-18T05:00:39;2.00;99.90
48376;DHT22;34178;50.904;11.560;2023-11-18T05:03:05;1.80;99.90
48376;DHT22;34178;50.904;11.560;2023-11-18T05:05:35;1.70;99.90
48376;DHT22;34178;50.904;11.560;2023-11-18T05:08:04;1.60;99.90
48376;DHT22;34178;50.904;11.560;2023-11-18T05:10:29;1.50;99.90
48376;DHT22;34178;50.904;11.560;2023-11-18T05:12:55;1.40;99.90
48376;DHT22;34178;50.904;11.560;2023-11-18T05:15:22;1.30;99.90
48376;DHT22;34178;50.904;11.560;2023-11-18T05:17:54;1.30;99.90
48376;DHT22;34178;50.904;11.560;2023-11-18T05:20:20;1.20;99.90
48376;DHT22;34178;50.904;11.560;2023-11-18T05:22:47;1.20;99.90
48376;DHT22;34178;50.904;11.560;2023-11-18T05:25:13;1.10;99.90
48376;DHT22;34178;50.904;11.560;2023-11-18T05:27:39;1.10;99.90
48376;DHT22;34178;50.904;11.560;2023-11-18T05:30:09;1.10;99.90
48376;DHT22;34178;50.904;11.560;2023-11-18T05:32:36;1.10;99.90
48376;DHT22;34178;50.904;11.560;2023-11-18T05:35:04;1.00;99.90
48376;DHT22;34178;50.904;11.560;2023-11-18T05:37:30;1.00;99.90
48376;DHT22;34178;50.904;11.560;2023-11-18T05:40:01;1.00;99.90
48376;DHT22;34178;50.904;11.560;2023-11-18T05:42:33;1.00;99.90
48376;DHT22;34178;50.904;11.560;2023-11-18T05:44:59;1.00;99.90
48376;DHT22;34178;50.904;11.560;2023-11-18T05:47:26;1.00;99.90
48376;DHT22;34178;50.904;11.560;2023-11-18T05:49:53;1.10;99.90
48376;DHT22;34178;50.904;11.560;2023-11-18T05:52:19;1.10;99.90
48376;DHT22;34178;50.904;11.560;2023-11-18T05:54:46;1.10;99.90
48376;DHT22;34178;50.904;11.560;2023-11-18T05:57:14;1.10;99.90
48376;DHT22;34178;50.904;11.560;2023-11-18T05:59:40;1.10;99.90
48376;DHT22;34178;50.904;11.560;2023-11-18T06:02:05;1.20;99.90
48376;DHT22;34178;50.904;11.560;2023-11-18T06:04:31;1.30;99.90
48376;DHT22;34178;50.904;11.560;2023-11-18T06:06:57;1.50;99.90
48376;DHT22;34178;50.904;11.560;2023-11-18T06:09:22;1.60;99.90
48376;DHT22;34178;50.904;11.560;2023-11-18T06:11:51;1.70;99.90
48376;DHT22;34178;50.904;11.560;2023-11-18T06:14:19;1.70;99.90
48376;DHT22;34178;50.904;11.560;2023-11-18T06:16:45;1.80;99.90
48376;DHT22;34178;50.904;11.560;2023-11-18T06:19:12;1.90;99.90
48376;DHT22;34178;50.904;11.560;2023-11-18T06:21:38;2.00;99.90
48376;DHT22;34178;50.904;11.560;2023-11-18T06:24:04;2.10;99.90
48376;DHT22;34178;50.904;11.560;2023-11-18T06:26:31;2.30;99.90
48376;DHT22;34178;50.904;11.560;2023-11-18T06:28:57;2.30;99.90
48376;DHT22;34178;50.904;11.560;2023-11-18T06:31:23;2.30;99.90
48376;DHT22;34178;50.904;11.560;2023-11-18T06:33:50;2.30;99.90
48376;DHT22;34178;50.904;11.560;2023-11-18T06:38:48;2.40;99.90
48376;DHT22;34178;50.904;11.560;2023-11-18T06:41:21;2.40;99.90
48376;DHT22;34178;50.904;11.560;2023-11-18T06:43:49;2.40;99.90
48376;DHT22;34178;50.904;11.560;2023-11-18T06:46:26;2.50;99.90
48376;DHT22;34178;50.904;11.560;2023-11-18T06:48:53;2.50;99.90
48376;DHT22;34178;50.904;11.560;2023-11-18T06:51:24;2.60;99.90
48376;DHT22;34178;50.904;11.560;2023-11-18T06:53:54;2.60;99.90
48376;DHT22;34178;50.904;11.560;2023-11-18T06:56:20;2.70;99.90
48376;DHT22;34178;50.904;11.560;2023-11-18T06:58:46;2.70;99.90
48376;DHT22;34178;50.904;11.560;2023-11-18T07:01:13;2.70;99.90
48376;DHT22;34178;50.904;11.560;2023-11-18T07:03:43;2.80;99.90
48376;DHT22;34178;50.904;11.560;2023-11-18T07:06:09;2.80;99.90
48376;DHT22;34178;50.904;11.560;2023-11-18T07:08:36;2.80;99.90
48376;DHT22;34178;50.904;11.560;2023-11-18T07:11:03;2.90;99.90
48376;DHT22;34178;50.904;11.560;2023-11-18T07:13:29;2.80;99.90
48376;DHT22;34178;50.904;11.560;2023-11-18T07:15:55;2.80;99.90
48376;DHT22;34178;50.904;11.560;2023-11-18T07:18:23;2.90;99.90
48376;DHT22;34178;50.904;11.560;2023-11-18T07:20:49;2.90;99.90
48376;DHT22;34178;50.904;11.560;2023-11-18T07:23:17;3.00;99.90
48376;DHT22;34178;50.904;11.560;2023-11-18T07:25:44;2.90;99.90
48376;DHT22;34178;50.904;11.560;2023-11-18T07:28:13;2.90;99.90
48376;DHT22;34178;50.904;11.560;2023-11-18T07:30:43;3.00;99.90
48376;DHT22;34178;50.904;11.560;2023-11-18T07:33:10;3.00;99.90
48376;DHT22;34178;50.904;11.560;2023-11-18T07:35:36;3.00;99.90
48376;DHT22;34178;50.904;11.560;2023-11-18T07:38:02;3.00;99.90
48376;DHT22;34178;50.904;11.560;2023-11-18T07:40:28;3.10;99.90
48376;DHT22;34178;50.904;11.560;2023-11-18T07:42:57;3.10;99.90
48376;DHT22;34178;50.904;11.560;2023-11-18T07:45:27;3.10;99.90
48376;DHT22;34178;50.904;11.560;2023-11-18T07:47:54;3.20;99.90
48376;DHT22;34178;50.904;11.560;2023-11-18T07:50:20;3.20;99.90
48376;DHT22;34178;50.904;11.560;2023-11-18T07:52:50;3.20;99.90
48376;DHT22;34178;50.904;11.560;2023-11-18T07:55:16;3.30;99.90
48376;DHT22;34178;50.904;11.560;2023-11-18T07:57:42;3.30;99.90
48376;DHT22;34178;50.904;11.560;2023-11-18T08:00:08;3.30;99.90
48376;DHT22;34178;50.904;11.560;2023-11-18T08:02:38;3.40;99.90
48376;DHT22;34178;50.904;11.560;2023-11-18T08:05:04;3.50;99.90
48376;DHT22;34178;50.904;11.560;2023-11-18T08:07:34;3.60;99.90
48376;DHT22;34178;50.904;11.560;2023-11-18T08:10:01;3.60;99.90
48376;DHT22;34178;50.904;11.560;2023-11-18T08:12:32;3.60;99.90
48376;DHT22;34178;50.904;11.560;2023-11-18T08:15:00;3.60;99.90
48376;DHT22;34178;50.904;11.560;2023-11-18T08:17:26;3.60;99.90
48376;DHT22;34178;50.904;11.560;2023-11-18T08:19:55;3.60;99.90
48376;DHT22;34178;50.904;11.560;2023-11-18T08:22:21;3.70;99.90
48376;DHT22;34178;50.904;11.560;2023-11-18T08:24:49;3.80;99.90
48376;DHT22;34178;50.904;11.560;2023-11-18T08:27:15;3.80;99.90
48376;DHT22;34178;50.904;11.560;2023-11-18T08:29:40;4.00;99.90
48376;DHT22;34178;50.904;11.560;2023-11-18T08:32:07;4.20;99.90
48376;DHT22;34178;50.904;11.560;2023-11-18T08:34:35;4.40;99.90
48376;DHT22;34178;50.904;11.560;2023-11-18T08:37:06;4.60;99.90
48376;DHT22;34178;50.904;11.560;2023-11-18T08:39:32;4.80;99.90
48376;DHT22;34178;50.904;11.560;2023-11-18T08:41:58;4.80;99.90
48376;DHT22;34178;50.904;11.560;2023-11-18T08:44:24;4.90;99.90
48376;DHT22;34178;50.904;11.560;2023-11-18T08:46:51;4.90;99.90
48376;DHT22;34178;50.904;11.560;2023-11-18T08:49:20;4.90;99.90
48376;DHT22;34178;50.904;11.560;2023-11-18T08:51:50;5.00;99.90
48376;DHT22;34178;50.904;11.560;2023-11-18T08:54:24;5.10;99.90
48376;DHT22;34178;50.904;11.560;2023-11-18T08:57:04;5.20;99.90
48376;DHT22;34178;50.904;11.560;2023-11-18T08:59:45;5.30;99.90
48376;DHT22;34178;50.904;11.560;2023-11-18T09:02:10;5.30;99.90
48376;DHT22;34178;50.904;11.560;2023-11-18T09:04:40;5.40;99.90
48376;DHT22;34178;50.904;11.560;2023-11-18T09:07:09;5.40;99.90
48376;DHT22;34178;50.904;11.560;2023-11-18T09:09:35;5.50;99.90
48376;DHT22;34178;50.904;11.560;2023-11-18T09:12:01;5.40;99.90
48376;DHT22;34178;50.904;11.560;2023-11-18T09:14:28;5.30;99.90
48376;DHT22;34178;50.904;11.560;2023-11-18T09:16:54;5.30;99.90
48376;DHT22;34178;50.904;11.560;2023-11-18T09:19:24;5.30;99.90
48376;DHT22;34178;50.904;11.560;2023-11-18T09:21:50;5.30;99.90
48376;DHT22;34178;50.904;11.560;2023-11-18T09:24:17;5.20;99.90
48376;DHT22;34178;50.904;11.560;2023-11-18T09:26:46;5.10;99.90
48376;DHT22;34178;50.904;11.560;2023-11-18T09:29:15;5.10;99.90
48376;DHT22;34178;50.904;11.560;2023-11-18T09:31:47;5.10;99.90
48376;DHT22;34178;50.904;11.560;2023-11-18T09:34:18;5.00;99.90
48376;DHT22;34178;50.904;11.560;2023-11-18T09:36:44;5.00;99.90
48376;DHT22;34178;50.904;11.560;2023-11-18T09:39:10;5.00;99.90
48376;DHT22;34178;50.904;11.560;2023-11-18T09:41:55;5.20;99.90
48376;DHT22;34178;50.904;11.560;2023-11-18T09:44:22;5.30;99.90
48376;DHT22;34178;50.904;11.560;2023-11-18T09:46:56;5.40;99.90
48376;DHT22;34178;50.904;11.560;2023-11-18T09:49:32;5.40;99.90
48376;DHT22;34178;50.904;11.560;2023-11-18T09:52:06;5.50;99.90
48376;DHT22;34178;50.904;11.560;2023-11-18T09:55:03;5.60;99.90
48376;DHT22;34178;50.904;11.560;2023-11-18T09:57:43;5.70;99.90
48376;DHT22;34178;50.904;11.560;2023-11-18T10:00:12;5.80;99.90
48376;DHT22;34178;50.904;11.560;2023-11-18T10:02:58;6.00;99.90
48376;DHT22;34178;50.904;11.560;2023-11-18T10:05:27;6.10;99.90
48376;DHT22;34178;50.904;11.560;2023-11-18T10:07:55;6.20;99.90
48376;DHT22;34178;50.904;11.560;2023-11-18T10:10:24;6.30;99.90
48376;DHT22;34178;50.904;11.560;2023-11-18T10:12:52;6.40;99.90
48376;DHT22;34178;50.904;11.560;2023-11-18T10:15:20;6.50;99.90
48376;DHT22;34178;50.904;11.560;2023-11-18T10:17:50;6.50;99.90
48376;DHT22;34178;50.904;11.560;2023-11-18T10:23:16;6.90;99.90
48376;DHT22;34178;50.904;11.560;2023-11-18T10:25:56;7.00;99.90
48376;DHT22;34178;50.904;11.560;2023-11-18T10:30:55;7.30;99.90
48376;DHT22;34178;50.904;11.560;2023-11-18T10:33:24;7.50;99.90
48376;DHT22;34178;50.904;11.560;2023-11-18T10:35:56;7.70;99.90
48376;DHT22;34178;50.904;11.560;2023-11-18T10:38:23;7.80;99.90
48376;DHT22;34178;50.904;11.560;2023-11-18T10:40:54;8.00;99.90
48376;DHT22;34178;50.904;11.560;2023-11-18T10:43:23;8.00;99.90
48376;DHT22;34178;50.904;11.560;2023-11-18T10:46:06;8.00;99.90
48376;DHT22;34178;50.904;11.560;2023-11-18T10:51:13;8.00;99.90
48376;DHT22;34178;50.904;11.560;2023-11-18T10:53:43;7.90;99.90
48376;DHT22;34178;50.904;11.560;2023-11-18T10:56:19;7.90;99.90
48376;DHT22;34178;50.904;11.560;2023-11-18T10:58:50;7.80;99.90
48376;DHT22;34178;50.904;11.560;2023-11-18T11:01:30;7.90;99.90
48376;DHT22;34178;50.904;11.560;2023-11-18T11:03:57;8.10;99.90
48376;DHT22;34178;50.904;11.560;2023-11-18T11:06:27;8.10;99.90
48376;DHT22;34178;50.904;11.560;2023-11-18T11:08:56;8.20;99.90
48376;DHT22;34178;50.904;11.560;2023-11-18T11:11:25;8.30;99.90
48376;DHT22;34178;50.904;11.560;2023-11-18T11:14:00;8.40;99.90
48376;DHT22;34178;50.904;11.560;2023-11-18T11:16:40;8.70;99.90
48376;DHT22;34178;50.904;11.560;2023-11-18T11:19:24;8.90;99.90
48376;DHT22;34178;50.904;11.560;2023-11-18T11:22:11;9.10;99.90
48376;DHT22;34178;50.904;11.560;2023-11-18T11:27:34;9.50;99.90
48376;DHT22;34178;50.904;11.560;2023-11-18T11:30:22;9.80;99.90
48376;DHT22;34178;50.904;11.560;2023-11-18T11:33:12;10.20;99.90
48376;DHT22;34178;50.904;11.560;2023-11-18T11:35:40;10.60;99.90
48376;DHT22;34178;50.904;11.560;2023-11-18T11:38:12;10.90;99.80
48376;DHT22;34178;50.904;11.560;2023-11-18T11:40:41;11.10;96.10
48376;DHT22;34178;50.904;11.560;2023-11-18T11:43:09;11.20;95.80
48376;DHT22;34178;50.904;11.560;2023-11-18T11:45:37;11.40;96.80
48376;DHT22;34178;50.904;11.560;2023-11-18T11:48:06;11.90;95.90
48376;DHT22;34178;50.904;11.560;2023-11-18T11:51:09;12.20;95.80
48376;DHT22;34178;50.904;11.560;2023-11-18T11:53:45;12.60;94.90
48376;DHT22;34178;50.904;11.560;2023-11-18T11:56:13;12.90;94.00
48376;DHT22;34178;50.904;11.560;2023-11-18T11:58:46;13.10;94.90
48376;DHT22;34178;50.904;11.560;2023-11-18T12:01:28;12.90;93.40
48376;DHT22;34178;50.904;11.560;2023-11-18T12:04:02;12.80;93.90
48376;DHT22;34178;50.904;11.560;2023-11-18T12:06:33;12.80;94.90
48376;DHT22;34178;50.904;11.560;2023-11-18T12:09:02;12.60;93.50
48376;DHT22;34178;50.904;11.560;2023-11-18T12:11:38;12.50;93.70
48376;DHT22;34178;50.904;11.560;2023-11-18T12:14:11;12.10;93.70
48376;DHT22;34178;50.904;11.560;2023-11-18T12:17:08;11.90;93.70
48376;DHT22;34178;50.904;11.560;2023-11-18T12:19:47;11.90;94.20
48376;DHT22;34178;50.904;11.560;2023-11-18T12:22:25;11.80;94.50
48376;DHT22;34178;50.904;11.560;2023-11-18T12:33:04;12.00;95.40
48376;DHT22;34178;50.904;11.560;2023-11-18T12:39:02;11.80;96.00
48376;DHT22;34178;50.904;11.560;2023-11-18T12:41:42;11.60;96.60
48376;DHT22;34178;50.904;11.560;2023-11-18T12:44:29;11.50;94.40
48376;DHT22;34178;50.904;11.560;2023-11-18T12:47:02;11.60;94.80
48376;DHT22;34178;50.904;11.560;2023-11-18T12:49:44;11.60;95.00
48376;DHT22;34178;50.904;11.560;2023-11-18T12:52:11;11.30;94.80
48376;DHT22;34178;50.904;11.560;2023-11-18T12:54:41;11.20;95.20
48376;DHT22;34178;50.904;11.560;2023-11-18T12:57:12;11.10;96.90
48376;DHT22;34178;50.904;11.560;2023-11-18T12:59:41;10.80;95.50
48376;DHT22;34178;50.904;11.560;2023-11-18T13:02:08;10.60;95.40
48376;DHT22;34178;50.904;11.560;2023-11-18T13:04:39;10.60;95.90
48376;DHT22;34178;50.904;11.560;2023-11-18T13:07:06;10.50;94.90
48376;DHT22;34178;50.904;11.560;2023-11-18T13:09:34;10.40;94.80
48376;DHT22;34178;50.904;11.560;2023-11-18T13:12:03;10.20;96.10
48376;DHT22;34178;50.904;11.560;2023-11-18T13:14:35;10.20;96.40
48376;DHT22;34178;50.904;11.560;2023-11-18T13:17:05;10.30;95.80
48376;DHT22;34178;50.904;11.560;2023-11-18T13:19:34;10.40;95.70
48376;DHT22;34178;50.904;11.560;2023-11-18T13:22:01;10.30;96.00
48376;DHT22;34178;50.904;11.560;2023-11-18T13:24:32;10.10;95.90
48376;DHT22;34178;50.904;11.560;2023-11-18T13:26:59;10.10;95.30
48376;DHT22;34178;50.904;11.560;2023-11-18T13:29:29;10.10;95.60
48376;DHT22;34178;50.904;11.560;2023-11-18T13:31:55;10.10;95.50
48376;DHT22;34178;50.904;11.560;2023-11-18T13:34:23;10.00;97.10
48376;DHT22;34178;50.904;11.560;2023-11-18T13:36:50;9.80;97.80
48376;DHT22;34178;50.904;11.560;2023-11-18T13:39:20;9.80;96.00
48376;DHT22;34178;50.904;11.560;2023-11-18T13:41:50;9.80;96.60
48376;DHT22;34178;50.904;11.560;2023-11-18T13:44:36;9.70;96.10
48376;DHT22;34178;50.904;11.560;2023-11-18T13:47:07;9.80;97.50
48376;DHT22;34178;50.904;11.560;2023-11-18T13:49:33;9.80;98.70
48376;DHT22;34178;50.904;11.560;2023-11-18T13:52:02;9.70;99.80
48376;DHT22;34178;50.904;11.560;2023-11-18T13:54:29;9.70;99.10
48376;DHT22;34178;50.904;11.560;2023-11-18T13:57:01;9.50;97.30
48376;DHT22;34178;50.904;11.560;2023-11-18T13:59:28;9.50;98.30
48376;DHT22;34178;50.904;11.560;2023-11-18T14:01:55;9.50;97.40
48376;DHT22;34178;50.904;11.560;2023-11-18T14:04:24;9.40;99.90
48376;DHT22;34178;50.904;11.560;2023-11-18T14:06:52;9.40;99.90
48376;DHT22;34178;50.904;11.560;2023-11-18T14:09:19;9.30;99.90
48376;DHT22;34178;50.904;11.560;2023-11-18T14:11:49;9.20;99.90
48376;DHT22;34178;50.904;11.560;2023-11-18T14:14:15;9.20;99.90
48376;DHT22;34178;50.904;11.560;2023-11-18T14:16:41;9.20;99.90
48376;DHT22;34178;50.904;11.560;2023-11-18T14:19:06;9.00;99.90
48376;DHT22;34178;50.904;11.560;2023-11-18T14:21:33;8.90;99.90
48376;DHT22;34178;50.904;11.560;2023-11-18T14:23:58;8.80;99.90
48376;DHT22;34178;50.904;11.560;2023-11-18T14:26:28;8.60;99.90
48376;DHT22;34178;50.904;11.560;2023-11-18T14:28:55;8.50;99.90
48376;DHT22;34178;50.904;11.560;2023-11-18T14:31:21;8.30;99.90
48376;DHT22;34178;50.904;11.560;2023-11-18T14:33:48;8.20;99.90
48376;DHT22;34178;50.904;11.560;2023-11-18T14:36:14;8.10;99.90
48376;DHT22;34178;50.904;11.560;2023-11-18T14:38:40;7.90;99.90
48376;DHT22;34178;50.904;11.560;2023-11-18T14:41:06;7.70;99.90
48376;DHT22;34178;50.904;11.560;2023-11-18T14:43:33;7.60;99.90
48376;DHT22;34178;50.904;11.560;2023-11-18T14:46:00;7.60;99.90
48376;DHT22;34178;50.904;11.560;2023-11-18T14:48:25;7.50;99.90
48376;DHT22;34178;50.904;11.560;2023-11-18T14:50:51;7.40;99.90
48376;DHT22;34178;50.904;11.560;2023-11-18T14:53:17;7.30;99.90
48376;DHT22;34178;50.904;11.560;2023-11-18T14:55:43;7.30;99.90
48376;DHT22;34178;50.904;11.560;2023-11-18T14:58:09;7.20;99.90
48376;DHT22;34178;50.904;11.560;2023-11-18T15:00:37;7.10;99.90
48376;DHT22;34178;50.904;11.560;2023-11-18T15:03:03;7.10;99.90
48376;DHT22;34178;50.904;11.560;2023-11-18T15:05:29;7.00;99.90
48376;DHT22;34178;50.904;11.560;2023-11-18T15:07:57;7.00;99.90
48376;DHT22;34178;50.904;11.560;2023-11-18T15:10:25;7.00;99.90
48376;DHT22;34178;50.904;11.560;2023-11-18T15:12:53;6.90;99.90
48376;DHT22;34178;50.904;11.560;2023-11-18T15:15:24;6.90;99.90
48376;DHT22;34178;50.904;11.560;2023-11-18T15:17:57;6.90;99.90
48376;DHT22;34178;50.904;11.560;2023-11-18T15:20:24;6.90;99.90
48376;DHT22;34178;50.904;11.560;2023-11-18T15:22:51;6.80;99.90
48376;DHT22;34178;50.904;11.560;2023-11-18T15:25:16;6.80;99.90
48376;DHT22;34178;50.904;11.560;2023-11-18T15:27:46;6.80;99.90
48376;DHT22;34178;50.904;11.560;2023-11-18T15:30:13;6.70;99.90
48376;DHT22;34178;50.904;11.560;2023-11-18T15:32:41;6.70;99.90
48376;DHT22;34178;50.904;11.560;2023-11-18T15:35:07;6.70;99.90
48376;DHT22;34178;50.904;11.560;2023-11-18T15:37:36;6.70;99.90
48376;DHT22;34178;50.904;11.560;2023-11-18T15:40:10;6.70;99.90
48376;DHT22;34178;50.904;11.560;2023-11-18T15:42:40;6.70;99.90
48376;DHT22;34178;50.904;11.560;2023-11-18T15:45:11;6.60;99.90
48376;DHT22;34178;50.904;11.560;2023-11-18T15:47:41;6.50;99.90
48376;DHT22;34178;50.904;11.560;2023-11-18T15:50:11;6.50;99.90
48376;DHT22;34178;50.904;11.560;2023-11-18T15:52:48;6.40;99.90
48376;DHT22;34178;50.904;11.560;2023-11-18T15:55:15;6.30;99.90
48376;DHT22;34178;50.904;11.560;2023-11-18T15:57:47;6.20;99.90
48376;DHT22;34178;50.904;11.560;2023-11-18T16:00:18;6.20;99.90
48376;DHT22;34178;50.904;11.560;2023-11-18T16:02:56;6.20;99.90
48376;DHT22;34178;50.904;11.560;2023-11-18T16:05:25;6.30;99.90